sensor_id;sensor_type;location;lat;lon;timestamp;P1;durP1;ratioP1;P2;durP2;ratioP2
22439;SDS011;11387;51.612;7.210;2022-08-19T00:01:42;5.95;;;4.63;;
22439;SDS011;11387;51.612;7.210;2022-08-19T00:04:21;6.38;;;4.05;;
22439;SDS011;11387;51.612;7.210;2022-08-19T00:06:51;6.70;;;4.28;;
22439;SDS011;11387;51.612;7.210;2022-08-19T00:09:20;6.75;;;4.68;;
22439;SDS011;11387;51.612;7.210;2022-08-19T00:11:49;6.88;;;4.80;;
22439;SDS011;11387;51.612;7.210;2022-08-19T00:14:18;8.43;;;4.55;;
22439;SDS011;11387;51.612;7.210;2022-08-19T00:16:46;8.07;;;4.65;;
22439;SDS011;11387;51.612;7.210;2022-08-19T00:19:15;5.63;;;4.53;;
22439;SDS011;11387;51.612;7.210;2022-08-19T00:21:45;7.10;;;5.30;;
22439;SDS011;11387;51.612;7.210;2022-08-19T00:24:13;7.15;;;5.45;;
22439;SDS011;11387;51.612;7.210;2022-08-19T00:26:42;6.95;;;5.13;;
22439;SDS011;11387;51.612;7.210;2022-08-19T00:29:12;7.95;;;5.55;;
22439;SDS011;11387;51.612;7.210;2022-08-19T00:31:42;6.50;;;5.43;;
22439;SDS011;11387;51.612;7.210;2022-08-19T00:34:10;7.93;;;5.18;;
22439;SDS011;11387;51.612;7.210;2022-08-19T00:36:39;5.55;;;4.70;;
22439;SDS011;11387;51.612;7.210;2022-08-19T00:39:09;6.82;;;4.50;;
22439;SDS011;11387;51.612;7.210;2022-08-19T00:41:38;7.32;;;5.18;;
22439;SDS011;11387;51.612;7.210;2022-08-19T00:44:09;8.15;;;5.10;;
22439;SDS011;11387;51.612;7.210;2022-08-19T00:46:39;7.38;;;4.70;;
22439;SDS011;11387;51.612;7.210;2022-08-19T00:49:10;5.55;;;4.63;;
22439;SDS011;11387;51.612;7.210;2022-08-19T00:51:41;6.55;;;5.28;;
22439;SDS011;11387;51.612;7.210;2022-08-19T00:54:13;9.30;;;5.22;;
22439;SDS011;11387;51.612;7.210;2022-08-19T00:56:42;7.80;;;5.57;;
22439;SDS011;11387;51.612;7.210;2022-08-19T00:59:11;6.40;;;5.28;;
22439;SDS011;11387;51.612;7.210;2022-08-19T01:01:59;7.68;;;5.13;;
22439;SDS011;11387;51.612;7.210;2022-08-19T01:04:27;7.60;;;4.93;;
22439;SDS011;11387;51.612;7.210;2022-08-19T01:09:24;7.50;;;5.07;;
22439;SDS011;11387;51.612;7.210;2022-08-19T01:11:52;6.15;;;5.28;;
22439;SDS011;11387;51.612;7.210;2022-08-19T01:16:48;7.85;;;5.88;;
22439;SDS011;11387;51.612;7.210;2022-08-19T01:19:22;8.15;;;5.45;;
22439;SDS011;11387;51.612;7.210;2022-08-19T01:21:55;7.10;;;5.38;;
22439;SDS011;11387;51.612;7.210;2022-08-19T01:24:41;7.25;;;6.22;;
22439;SDS011;11387;51.612;7.210;2022-08-19T01:27:15;7.60;;;6.57;;
22439;SDS011;11387;51.612;7.210;2022-08-19T01:29:43;12.57;;;6.45;;
22439;SDS011;11387;51.612;7.210;2022-08-19T01:32:14;9.05;;;6.55;;
22439;SDS011;11387;51.612;7.210;2022-08-19T01:34:59;11.30;;;7.38;;
22439;SDS011;11387;51.612;7.210;2022-08-19T01:37:29;12.70;;;7.28;;
22439;SDS011;11387;51.612;7.210;2022-08-19T01:39:59;10.57;;;7.25;;
22439;SDS011;11387;51.612;7.210;2022-08-19T01:42:31;10.75;;;7.57;;
22439;SDS011;11387;51.612;7.210;2022-08-19T01:47:27;9.50;;;7.15;;
22439;SDS011;11387;51.612;7.210;2022-08-19T01:49:54;10.55;;;8.73;;
22439;SDS011;11387;51.612;7.210;2022-08-19T01:54:50;15.52;;;10.35;;
22439;SDS011;11387;51.612;7.210;2022-08-19T01:59:47;11.85;;;8.52;;
22439;SDS011;11387;51.612;7.210;2022-08-19T02:04:42;12.07;;;9.38;;
22439;SDS011;11387;51.612;7.210;2022-08-19T02:07:11;15.63;;;10.93;;
22439;SDS011;11387;51.612;7.210;2022-08-19T02:12:07;14.30;;;10.90;;
22439;SDS011;11387;51.612;7.210;2022-08-19T02:14:37;12.82;;;9.68;;
22439;SDS011;11387;51.612;7.210;2022-08-19T02:17:04;16.52;;;11.50;;
22439;SDS011;11387;51.612;7.210;2022-08-19T02:19:32;11.82;;;10.30;;
22439;SDS011;11387;51.612;7.210;2022-08-19T02:22:04;14.32;;;11.10;;
22439;SDS011;11387;51.612;7.210;2022-08-19T02:24:33;16.48;;;10.85;;
22439;SDS011;11387;51.612;7.210;2022-08-19T02:29:28;14.07;;;11.73;;
22439;SDS011;11387;51.612;7.210;2022-08-19T02:34:25;12.98;;;11.35;;
22439;SDS011;11387;51.612;7.210;2022-08-19T02:39:20;14.52;;;11.90;;
22439;SDS011;11387;51.612;7.210;2022-08-19T02:41:47;16.33;;;12.93;;
22439;SDS011;11387;51.612;7.210;2022-08-19T02:44:15;17.60;;;12.80;;
22439;SDS011;11387;51.612;7.210;2022-08-19T02:46:58;15.75;;;13.05;;
22439;SDS011;11387;51.612;7.210;2022-08-19T02:49:25;18.95;;;12.90;;
22439;SDS011;11387;51.612;7.210;2022-08-19T02:54:21;16.25;;;12.48;;
22439;SDS011;11387;51.612;7.210;2022-08-19T02:59:16;14.25;;;12.05;;
22439;SDS011;11387;51.612;7.210;2022-08-19T03:01:48;14.20;;;12.15;;
22439;SDS011;11387;51.612;7.210;2022-08-19T03:04:18;15.35;;;11.88;;
22439;SDS011;11387;51.612;7.210;2022-08-19T03:06:46;14.02;;;12.48;;
22439;SDS011;11387;51.612;7.210;2022-08-19T03:09:15;13.95;;;12.48;;
22439;SDS011;11387;51.612;7.210;2022-08-19T03:11:43;15.75;;;12.60;;
22439;SDS011;11387;51.612;7.210;2022-08-19T03:14:13;17.70;;;13.15;;
22439;SDS011;11387;51.612;7.210;2022-08-19T03:19:11;16.85;;;12.38;;
22439;SDS011;11387;51.612;7.210;2022-08-19T03:21:41;16.70;;;13.35;;
22439;SDS011;11387;51.612;7.210;2022-08-19T03:24:11;17.48;;;13.70;;
22439;SDS011;11387;51.612;7.210;2022-08-19T03:26:40;16.67;;;14.32;;
22439;SDS011;11387;51.612;7.210;2022-08-19T03:29:09;18.35;;;14.57;;
22439;SDS011;11387;51.612;7.210;2022-08-19T03:31:49;17.33;;;13.50;;
22439;SDS011;11387;51.612;7.210;2022-08-19T03:34:19;16.48;;;14.68;;
22439;SDS011;11387;51.612;7.210;2022-08-19T03:36:50;19.60;;;14.05;;
22439;SDS011;11387;51.612;7.210;2022-08-19T03:39:18;18.00;;;14.93;;
22439;SDS011;11387;51.612;7.210;2022-08-19T03:44:35;17.45;;;14.55;;
22439;SDS011;11387;51.612;7.210;2022-08-19T03:47:04;19.77;;;15.95;;
22439;SDS011;11387;51.612;7.210;2022-08-19T03:49:32;21.33;;;15.88;;
22439;SDS011;11387;51.612;7.210;2022-08-19T03:52:04;18.65;;;14.80;;
22439;SDS011;11387;51.612;7.210;2022-08-19T03:54:33;18.13;;;16.20;;
22439;SDS011;11387;51.612;7.210;2022-08-19T03:57:02;19.50;;;15.90;;
22439;SDS011;11387;51.612;7.210;2022-08-19T03:59:32;21.05;;;16.42;;
22439;SDS011;11387;51.612;7.210;2022-08-19T04:02:02;20.98;;;16.85;;
22439;SDS011;11387;51.612;7.210;2022-08-19T04:04:35;26.10;;;16.55;;
22439;SDS011;11387;51.612;7.210;2022-08-19T04:07:05;22.40;;;15.57;;
22439;SDS011;11387;51.612;7.210;2022-08-19T04:09:33;19.98;;;16.08;;
22439;SDS011;11387;51.612;7.210;2022-08-19T04:12:03;27.23;;;15.88;;
22439;SDS011;11387;51.612;7.210;2022-08-19T04:14:32;18.70;;;15.05;;
22439;SDS011;11387;51.612;7.210;2022-08-19T04:17:02;21.85;;;16.15;;
22439;SDS011;11387;51.612;7.210;2022-08-19T04:19:31;22.00;;;15.93;;
22439;SDS011;11387;51.612;7.210;2022-08-19T04:21:59;19.42;;;14.85;;
22439;SDS011;11387;51.612;7.210;2022-08-19T04:24:29;20.15;;;15.05;;
22439;SDS011;11387;51.612;7.210;2022-08-19T04:26:58;20.63;;;14.95;;
22439;SDS011;11387;51.612;7.210;2022-08-19T04:29:28;21.27;;;16.40;;
22439;SDS011;11387;51.612;7.210;2022-08-19T04:31:57;18.27;;;14.93;;
22439;SDS011;11387;51.612;7.210;2022-08-19T04:34:34;17.77;;;15.68;;
22439;SDS011;11387;51.612;7.210;2022-08-19T04:37:23;20.03;;;15.10;;
22439;SDS011;11387;51.612;7.210;2022-08-19T04:40:01;17.92;;;15.63;;
22439;SDS011;11387;51.612;7.210;2022-08-19T04:42:50;23.70;;;15.98;;
22439;SDS011;11387;51.612;7.210;2022-08-19T04:45:22;24.92;;;16.33;;
22439;SDS011;11387;51.612;7.210;2022-08-19T04:47:53;23.92;;;16.83;;
22439;SDS011;11387;51.612;7.210;2022-08-19T04:50:45;23.75;;;17.73;;
22439;SDS011;11387;51.612;7.210;2022-08-19T04:53:17;23.08;;;17.30;;
22439;SDS011;11387;51.612;7.210;2022-08-19T04:55:46;22.98;;;17.55;;
22439;SDS011;11387;51.612;7.210;2022-08-19T04:58:13;23.42;;;17.13;;
22439;SDS011;11387;51.612;7.210;2022-08-19T05:00:42;29.55;;;19.40;;
22439;SDS011;11387;51.612;7.210;2022-08-19T05:03:10;25.05;;;17.33;;
22439;SDS011;11387;51.612;7.210;2022-08-19T05:05:39;19.48;;;14.35;;
22439;SDS011;11387;51.612;7.210;2022-08-19T05:08:10;69.97;;;40.88;;
22439;SDS011;11387;51.612;7.210;2022-08-19T05:10:40;84.32;;;47.53;;
22439;SDS011;11387;51.612;7.210;2022-08-19T05:13:09;35.70;;;22.58;;
22439;SDS011;11387;51.612;7.210;2022-08-19T05:15:37;21.83;;;16.17;;
22439;SDS011;11387;51.612;7.210;2022-08-19T05:20:50;25.20;;;16.85;;
22439;SDS011;11387;51.612;7.210;2022-08-19T05:23:36;22.42;;;15.90;;
22439;SDS011;11387;51.612;7.210;2022-08-19T05:26:04;26.58;;;17.00;;
22439;SDS011;11387;51.612;7.210;2022-08-19T05:28:33;22.30;;;16.48;;
22439;SDS011;11387;51.612;7.210;2022-08-19T05:31:01;19.40;;;15.48;;
22439;SDS011;11387;51.612;7.210;2022-08-19T05:35:57;26.33;;;16.08;;
22439;SDS011;11387;51.612;7.210;2022-08-19T05:38:25;22.13;;;15.55;;
22439;SDS011;11387;51.612;7.210;2022-08-19T05:40:54;20.35;;;15.88;;
22439;SDS011;11387;51.612;7.210;2022-08-19T05:43:22;20.48;;;15.10;;
22439;SDS011;11387;51.612;7.210;2022-08-19T05:48:19;18.92;;;16.10;;
22439;SDS011;11387;51.612;7.210;2022-08-19T05:53:16;23.38;;;16.23;;
22439;SDS011;11387;51.612;7.210;2022-08-19T05:55:44;26.80;;;17.42;;
22439;SDS011;11387;51.612;7.210;2022-08-19T05:58:12;20.85;;;16.52;;
22439;SDS011;11387;51.612;7.210;2022-08-19T06:03:11;20.67;;;17.23;;
22439;SDS011;11387;51.612;7.210;2022-08-19T06:05:39;27.60;;;18.40;;
22439;SDS011;11387;51.612;7.210;2022-08-19T06:10:45;24.15;;;17.73;;
22439;SDS011;11387;51.612;7.210;2022-08-19T06:13:13;23.40;;;17.20;;
22439;SDS011;11387;51.612;7.210;2022-08-19T06:15:41;21.02;;;17.60;;
22439;SDS011;11387;51.612;7.210;2022-08-19T06:18:11;22.08;;;19.63;;
22439;SDS011;11387;51.612;7.210;2022-08-19T06:20:40;20.73;;;18.27;;
22439;SDS011;11387;51.612;7.210;2022-08-19T06:23:21;24.00;;;18.20;;
22439;SDS011;11387;51.612;7.210;2022-08-19T06:25:49;24.40;;;20.65;;
22439;SDS011;11387;51.612;7.210;2022-08-19T06:28:17;28.90;;;22.80;;
22439;SDS011;11387;51.612;7.210;2022-08-19T06:30:45;25.90;;;20.67;;
22439;SDS011;11387;51.612;7.210;2022-08-19T06:35:43;24.88;;;19.77;;
22439;SDS011;11387;51.612;7.210;2022-08-19T06:38:11;26.85;;;21.02;;
22439;SDS011;11387;51.612;7.210;2022-08-19T06:40:39;26.05;;;20.05;;
22439;SDS011;11387;51.612;7.210;2022-08-19T06:43:13;24.08;;;18.83;;
22439;SDS011;11387;51.612;7.210;2022-08-19T06:45:43;25.85;;;18.02;;
22439;SDS011;11387;51.612;7.210;2022-08-19T06:48:13;19.58;;;17.13;;
22439;SDS011;11387;51.612;7.210;2022-08-19T06:50:43;22.63;;;18.02;;
22439;SDS011;11387;51.612;7.210;2022-08-19T06:53:11;22.67;;;17.75;;
22439;SDS011;11387;51.612;7.210;2022-08-19T06:55:39;30.92;;;20.10;;
22439;SDS011;11387;51.612;7.210;2022-08-19T07:00:35;30.73;;;21.45;;
22439;SDS011;11387;51.612;7.210;2022-08-19T07:03:03;26.23;;;19.88;;
22439;SDS011;11387;51.612;7.210;2022-08-19T07:05:39;26.02;;;19.67;;
22439;SDS011;11387;51.612;7.210;2022-08-19T07:08:11;19.00;;;16.73;;
22439;SDS011;11387;51.612;7.210;2022-08-19T07:10:41;24.15;;;17.08;;
22439;SDS011;11387;51.612;7.210;2022-08-19T07:13:10;22.75;;;17.17;;
22439;SDS011;11387;51.612;7.210;2022-08-19T07:15:38;24.25;;;18.00;;
22439;SDS011;11387;51.612;7.210;2022-08-19T07:18:07;20.27;;;17.27;;
22439;SDS011;11387;51.612;7.210;2022-08-19T07:20:38;18.15;;;15.23;;
22439;SDS011;11387;51.612;7.210;2022-08-19T07:23:07;19.13;;;16.55;;
22439;SDS011;11387;51.612;7.210;2022-08-19T07:25:41;19.55;;;15.98;;
22439;SDS011;11387;51.612;7.210;2022-08-19T07:28:09;21.30;;;17.92;;
22439;SDS011;11387;51.612;7.210;2022-08-19T07:30:49;21.63;;;17.13;;
22439;SDS011;11387;51.612;7.210;2022-08-19T07:33:18;20.73;;;15.13;;
22439;SDS011;11387;51.612;7.210;2022-08-19T07:35:47;23.45;;;17.42;;
22439;SDS011;11387;51.612;7.210;2022-08-19T07:38:16;33.50;;;16.15;;
22439;SDS011;11387;51.612;7.210;2022-08-19T07:40:44;23.60;;;17.60;;
22439;SDS011;11387;51.612;7.210;2022-08-19T07:43:12;22.67;;;15.60;;
22439;SDS011;11387;51.612;7.210;2022-08-19T07:45:43;18.90;;;15.70;;
22439;SDS011;11387;51.612;7.210;2022-08-19T07:48:11;23.80;;;18.38;;
22439;SDS011;11387;51.612;7.210;2022-08-19T07:50:39;20.95;;;17.25;;
22439;SDS011;11387;51.612;7.210;2022-08-19T07:53:08;24.38;;;15.25;;
22439;SDS011;11387;51.612;7.210;2022-08-19T07:55:36;16.15;;;12.48;;
22439;SDS011;11387;51.612;7.210;2022-08-19T07:58:08;18.52;;;12.80;;
22439;SDS011;11387;51.612;7.210;2022-08-19T08:00:35;21.85;;;13.93;;
22439;SDS011;11387;51.612;7.210;2022-08-19T08:03:03;19.92;;;12.32;;
22439;SDS011;11387;51.612;7.210;2022-08-19T08:05:31;15.07;;;10.88;;
22439;SDS011;11387;51.612;7.210;2022-08-19T08:08:18;16.67;;;12.35;;
22439;SDS011;11387;51.612;7.210;2022-08-19T08:11:09;12.00;;;10.35;;
22439;SDS011;11387;51.612;7.210;2022-08-19T08:13:40;12.38;;;9.70;;
22439;SDS011;11387;51.612;7.210;2022-08-19T08:16:08;11.88;;;9.27;;
22439;SDS011;11387;51.612;7.210;2022-08-19T08:18:39;15.10;;;9.68;;
22439;SDS011;11387;51.612;7.210;2022-08-19T08:21:08;11.75;;;9.57;;
22439;SDS011;11387;51.612;7.210;2022-08-19T08:23:37;11.73;;;10.55;;
22439;SDS011;11387;51.612;7.210;2022-08-19T08:26:06;14.68;;;8.18;;
22439;SDS011;11387;51.612;7.210;2022-08-19T08:28:35;9.68;;;7.85;;
22439;SDS011;11387;51.612;7.210;2022-08-19T08:31:03;13.80;;;8.13;;
22439;SDS011;11387;51.612;7.210;2022-08-19T08:33:35;15.02;;;10.20;;
22439;SDS011;11387;51.612;7.210;2022-08-19T08:36:04;10.15;;;7.72;;
22439;SDS011;11387;51.612;7.210;2022-08-19T08:38:32;10.68;;;7.85;;
22439;SDS011;11387;51.612;7.210;2022-08-19T08:41:09;10.35;;;7.93;;
22439;SDS011;11387;51.612;7.210;2022-08-19T08:43:46;10.93;;;7.97;;
22439;SDS011;11387;51.612;7.210;2022-08-19T08:46:18;11.40;;;8.18;;
22439;SDS011;11387;51.612;7.210;2022-08-19T08:48:59;12.88;;;7.38;;
22439;SDS011;11387;51.612;7.210;2022-08-19T08:51:32;9.85;;;8.77;;
22439;SDS011;11387;51.612;7.210;2022-08-19T08:54:10;10.68;;;6.35;;
22439;SDS011;11387;51.612;7.210;2022-08-19T08:56:42;12.30;;;7.07;;
22439;SDS011;11387;51.612;7.210;2022-08-19T08:59:12;11.88;;;8.05;;
22439;SDS011;11387;51.612;7.210;2022-08-19T09:01:46;11.00;;;8.98;;
22439;SDS011;11387;51.612;7.210;2022-08-19T09:04:14;10.40;;;7.57;;
22439;SDS011;11387;51.612;7.210;2022-08-19T09:06:46;11.65;;;8.05;;
22439;SDS011;11387;51.612;7.210;2022-08-19T09:09:23;12.82;;;9.05;;
22439;SDS011;11387;51.612;7.210;2022-08-19T09:12:02;10.60;;;8.35;;
22439;SDS011;11387;51.612;7.210;2022-08-19T09:14:39;13.88;;;8.55;;
22439;SDS011;11387;51.612;7.210;2022-08-19T09:17:17;12.02;;;9.32;;
22439;SDS011;11387;51.612;7.210;2022-08-19T09:19:48;11.45;;;9.45;;
22439;SDS011;11387;51.612;7.210;2022-08-19T09:22:18;11.77;;;10.50;;
22439;SDS011;11387;51.612;7.210;2022-08-19T09:24:53;9.82;;;8.68;;
22439;SDS011;11387;51.612;7.210;2022-08-19T09:27:23;13.98;;;10.05;;
22439;SDS011;11387;51.612;7.210;2022-08-19T09:30:08;10.27;;;8.52;;
22439;SDS011;11387;51.612;7.210;2022-08-19T09:32:39;14.10;;;11.82;;
22439;SDS011;11387;51.612;7.210;2022-08-19T09:35:08;18.50;;;11.43;;
22439;SDS011;11387;51.612;7.210;2022-08-19T09:37:37;16.10;;;12.05;;
22439;SDS011;11387;51.612;7.210;2022-08-19T09:40:06;17.15;;;10.57;;
22439;SDS011;11387;51.612;7.210;2022-08-19T09:42:38;13.05;;;11.75;;
22439;SDS011;11387;51.612;7.210;2022-08-19T09:45:19;12.70;;;11.50;;
22439;SDS011;11387;51.612;7.210;2022-08-19T09:47:49;13.25;;;11.88;;
22439;SDS011;11387;51.612;7.210;2022-08-19T09:50:20;14.32;;;12.52;;
22439;SDS011;11387;51.612;7.210;2022-08-19T09:53:00;16.77;;;12.52;;
22439;SDS011;11387;51.612;7.210;2022-08-19T09:55:28;13.82;;;10.43;;
22439;SDS011;11387;51.612;7.210;2022-08-19T09:58:02;15.95;;;12.10;;
22439;SDS011;11387;51.612;7.210;2022-08-19T10:00:30;17.88;;;14.55;;
22439;SDS011;11387;51.612;7.210;2022-08-19T10:02:58;15.30;;;12.00;;
22439;SDS011;11387;51.612;7.210;2022-08-19T10:05:26;15.85;;;11.65;;
22439;SDS011;11387;51.612;7.210;2022-08-19T10:08:14;12.45;;;8.18;;
22439;SDS011;11387;51.612;7.210;2022-08-19T10:10:46;13.75;;;10.27;;
22439;SDS011;11387;51.612;7.210;2022-08-19T10:13:17;13.93;;;11.27;;
22439;SDS011;11387;51.612;7.210;2022-08-19T10:15:48;14.13;;;12.57;;
22439;SDS011;11387;51.612;7.210;2022-08-19T10:18:17;14.68;;;9.60;;
22439;SDS011;11387;51.612;7.210;2022-08-19T10:20:46;9.07;;;7.28;;
22439;SDS011;11387;51.612;7.210;2022-08-19T10:23:17;11.45;;;10.25;;
22439;SDS011;11387;51.612;7.210;2022-08-19T10:25:46;17.73;;;11.30;;
22439;SDS011;11387;51.612;7.210;2022-08-19T10:28:14;11.48;;;8.88;;
22439;SDS011;11387;51.612;7.210;2022-08-19T10:30:46;12.25;;;10.02;;
22439;SDS011;11387;51.612;7.210;2022-08-19T10:33:14;11.05;;;7.82;;
22439;SDS011;11387;51.612;7.210;2022-08-19T10:36:03;9.13;;;7.85;;
22439;SDS011;11387;51.612;7.210;2022-08-19T10:38:33;8.52;;;7.72;;
22439;SDS011;11387;51.612;7.210;2022-08-19T10:41:08;16.45;;;7.50;;
22439;SDS011;11387;51.612;7.210;2022-08-19T10:43:38;9.52;;;7.75;;
22439;SDS011;11387;51.612;7.210;2022-08-19T10:46:08;10.95;;;7.30;;
22439;SDS011;11387;51.612;7.210;2022-08-19T10:48:42;6.47;;;5.88;;
22439;SDS011;11387;51.612;7.210;2022-08-19T10:51:11;8.55;;;7.13;;
22439;SDS011;11387;51.612;7.210;2022-08-19T10:53:57;7.43;;;6.78;;
22439;SDS011;11387;51.612;7.210;2022-08-19T10:56:25;9.00;;;6.20;;
22439;SDS011;11387;51.612;7.210;2022-08-19T10:59:11;11.45;;;6.95;;
22439;SDS011;11387;51.612;7.210;2022-08-19T11:01:42;11.18;;;7.50;;
22439;SDS011;11387;51.612;7.210;2022-08-19T11:04:16;9.15;;;6.57;;
22439;SDS011;11387;51.612;7.210;2022-08-19T11:06:45;12.13;;;7.50;;
22439;SDS011;11387;51.612;7.210;2022-08-19T11:09:15;8.13;;;7.28;;
22439;SDS011;11387;51.612;7.210;2022-08-19T11:11:44;11.25;;;10.10;;
22439;SDS011;11387;51.612;7.210;2022-08-19T11:14:15;11.93;;;10.65;;
22439;SDS011;11387;51.612;7.210;2022-08-19T11:16:48;13.00;;;9.38;;
22439;SDS011;11387;51.612;7.210;2022-08-19T11:19:16;13.77;;;9.43;;
22439;SDS011;11387;51.612;7.210;2022-08-19T11:21:46;10.20;;;9.13;;
22439;SDS011;11387;51.612;7.210;2022-08-19T11:24:16;13.40;;;11.02;;
22439;SDS011;11387;51.612;7.210;2022-08-19T11:26:46;12.80;;;11.02;;
22439;SDS011;11387;51.612;7.210;2022-08-19T11:29:16;15.48;;;12.40;;
22439;SDS011;11387;51.612;7.210;2022-08-19T11:31:48;14.35;;;12.32;;
22439;SDS011;11387;51.612;7.210;2022-08-19T11:34:18;14.40;;;11.32;;
22439;SDS011;11387;51.612;7.210;2022-08-19T11:36:48;16.23;;;10.63;;
22439;SDS011;11387;51.612;7.210;2022-08-19T11:39:18;11.35;;;9.18;;
22439;SDS011;11387;51.612;7.210;2022-08-19T11:41:47;14.25;;;10.15;;
22439;SDS011;11387;51.612;7.210;2022-08-19T11:44:15;14.02;;;10.00;;
22439;SDS011;11387;51.612;7.210;2022-08-19T11:46:44;11.48;;;8.80;;
22439;SDS011;11387;51.612;7.210;2022-08-19T11:49:15;14.18;;;9.15;;
22439;SDS011;11387;51.612;7.210;2022-08-19T11:51:50;14.77;;;13.20;;
22439;SDS011;11387;51.612;7.210;2022-08-19T11:54:19;10.70;;;9.60;;
22439;SDS011;11387;51.612;7.210;2022-08-19T11:56:47;14.60;;;10.15;;
22439;SDS011;11387;51.612;7.210;2022-08-19T11:59:15;13.30;;;10.32;;
22439;SDS011;11387;51.612;7.210;2022-08-19T12:01:43;10.00;;;8.35;;
22439;SDS011;11387;51.612;7.210;2022-08-19T12:04:11;10.20;;;8.23;;
22439;SDS011;11387;51.612;7.210;2022-08-19T12:06:40;10.90;;;7.78;;
22439;SDS011;11387;51.612;7.210;2022-08-19T12:09:08;10.27;;;9.15;;
22439;SDS011;11387;51.612;7.210;2022-08-19T12:11:38;7.75;;;6.90;;
22439;SDS011;11387;51.612;7.210;2022-08-19T12:14:08;11.52;;;8.60;;
22439;SDS011;11387;51.612;7.210;2022-08-19T12:16:40;9.07;;;8.18;;
22439;SDS011;11387;51.612;7.210;2022-08-19T12:19:17;12.75;;;9.07;;
22439;SDS011;11387;51.612;7.210;2022-08-19T12:21:49;8.85;;;7.60;;
22439;SDS011;11387;51.612;7.210;2022-08-19T12:24:19;9.38;;;7.07;;
22439;SDS011;11387;51.612;7.210;2022-08-19T12:26:49;12.77;;;7.50;;
22439;SDS011;11387;51.612;7.210;2022-08-19T12:29:19;12.38;;;7.05;;
22439;SDS011;11387;51.612;7.210;2022-08-19T12:31:48;8.75;;;6.78;;
22439;SDS011;11387;51.612;7.210;2022-08-19T12:34:16;9.70;;;7.78;;
22439;SDS011;11387;51.612;7.210;2022-08-19T12:36:46;10.57;;;8.82;;
22439;SDS011;11387;51.612;7.210;2022-08-19T12:39:16;11.30;;;7.85;;
22439;SDS011;11387;51.612;7.210;2022-08-19T12:41:44;8.07;;;7.28;;
22439;SDS011;11387;51.612;7.210;2022-08-19T12:44:20;9.65;;;8.32;;
22439;SDS011;11387;51.612;7.210;2022-08-19T12:46:55;9.10;;;7.93;;
22439;SDS011;11387;51.612;7.210;2022-08-19T12:49:23;10.15;;;7.40;;
22439;SDS011;11387;51.612;7.210;2022-08-19T12:52:11;12.32;;;8.70;;
22439;SDS011;11387;51.612;7.210;2022-08-19T12:54:43;14.95;;;9.43;;
22439;SDS011;11387;51.612;7.210;2022-08-19T12:57:10;9.85;;;8.82;;
22439;SDS011;11387;51.612;7.210;2022-08-19T12:59:38;12.30;;;8.07;;
22439;SDS011;11387;51.612;7.210;2022-08-19T13:02:07;10.75;;;8.73;;
22439;SDS011;11387;51.612;7.210;2022-08-19T13:04:35;9.10;;;6.40;;
22439;SDS011;11387;51.612;7.210;2022-08-19T13:07:07;10.40;;;7.35;;
22439;SDS011;11387;51.612;7.210;2022-08-19T13:09:35;8.77;;;6.55;;
22439;SDS011;11387;51.612;7.210;2022-08-19T13:12:09;9.65;;;8.65;;
22439;SDS011;11387;51.612;7.210;2022-08-19T13:14:39;10.88;;;6.90;;
22439;SDS011;11387;51.612;7.210;2022-08-19T13:17:07;9.23;;;7.05;;
22439;SDS011;11387;51.612;7.210;2022-08-19T13:19:38;9.63;;;7.65;;
22439;SDS011;11387;51.612;7.210;2022-08-19T13:22:06;8.13;;;7.00;;
22439;SDS011;11387;51.612;7.210;2022-08-19T13:24:40;9.75;;;6.60;;
22439;SDS011;11387;51.612;7.210;2022-08-19T13:27:14;8.13;;;6.43;;
22439;SDS011;11387;51.612;7.210;2022-08-19T13:29:42;8.23;;;5.68;;
22439;SDS011;11387;51.612;7.210;2022-08-19T13:32:28;9.27;;;6.70;;
22439;SDS011;11387;51.612;7.210;2022-08-19T13:35:14;11.38;;;6.07;;
22439;SDS011;11387;51.612;7.210;2022-08-19T13:37:42;10.70;;;6.47;;
22439;SDS011;11387;51.612;7.210;2022-08-19T13:40:13;7.78;;;5.30;;
22439;SDS011;11387;51.612;7.210;2022-08-19T13:42:48;8.25;;;5.57;;
22439;SDS011;11387;51.612;7.210;2022-08-19T13:45:20;8.57;;;4.72;;
22439;SDS011;11387;51.612;7.210;2022-08-19T13:47:50;10.55;;;5.53;;
22439;SDS011;11387;51.612;7.210;2022-08-19T13:50:25;7.05;;;5.40;;
22439;SDS011;11387;51.612;7.210;2022-08-19T13:52:55;8.35;;;5.13;;
22439;SDS011;11387;51.612;7.210;2022-08-19T13:55:23;8.75;;;4.85;;
22439;SDS011;11387;51.612;7.210;2022-08-19T13:57:55;5.78;;;4.95;;
22439;SDS011;11387;51.612;7.210;2022-08-19T14:00:24;9.65;;;4.50;;
22439;SDS011;11387;51.612;7.210;2022-08-19T14:02:54;8.95;;;4.65;;
22439;SDS011;11387;51.612;7.210;2022-08-19T14:05:24;6.38;;;4.35;;
22439;SDS011;11387;51.612;7.210;2022-08-19T14:07:53;5.82;;;4.32;;
22439;SDS011;11387;51.612;7.210;2022-08-19T14:10:22;6.45;;;4.47;;
22439;SDS011;11387;51.612;7.210;2022-08-19T14:12:53;8.13;;;4.20;;
22439;SDS011;11387;51.612;7.210;2022-08-19T14:15:24;4.90;;;4.40;;
22439;SDS011;11387;51.612;7.210;2022-08-19T14:17:52;10.88;;;4.97;;
22439;SDS011;11387;51.612;7.210;2022-08-19T14:20:20;10.60;;;4.00;;
22439;SDS011;11387;51.612;7.210;2022-08-19T14:22:52;8.73;;;4.63;;
22439;SDS011;11387;51.612;7.210;2022-08-19T14:25:21;3.85;;;3.45;;
22439;SDS011;11387;51.612;7.210;2022-08-19T14:27:50;9.45;;;4.50;;
22439;SDS011;11387;51.612;7.210;2022-08-19T14:30:22;9.70;;;3.75;;
22439;SDS011;11387;51.612;7.210;2022-08-19T14:32:52;7.03;;;3.60;;
22439;SDS011;11387;51.612;7.210;2022-08-19T14:35:21;6.85;;;3.90;;
22439;SDS011;11387;51.612;7.210;2022-08-19T14:37:50;7.88;;;4.10;;
22439;SDS011;11387;51.612;7.210;2022-08-19T14:40:22;7.88;;;4.75;;
22439;SDS011;11387;51.612;7.210;2022-08-19T14:42:52;7.07;;;4.88;;
22439;SDS011;11387;51.612;7.210;2022-08-19T14:45:23;6.32;;;4.38;;
22439;SDS011;11387;51.612;7.210;2022-08-19T14:47:51;9.07;;;4.10;;
22439;SDS011;11387;51.612;7.210;2022-08-19T14:50:21;7.72;;;4.18;;
22439;SDS011;11387;51.612;7.210;2022-08-19T14:53:03;10.13;;;4.25;;
22439;SDS011;11387;51.612;7.210;2022-08-19T14:55:40;6.90;;;4.47;;
22439;SDS011;11387;51.612;7.210;2022-08-19T14:58:08;9.38;;;5.20;;
22439;SDS011;11387;51.612;7.210;2022-08-19T15:00:57;7.18;;;4.78;;
22439;SDS011;11387;51.612;7.210;2022-08-19T15:03:26;5.57;;;4.68;;
22439;SDS011;11387;51.612;7.210;2022-08-19T15:05:54;14.27;;;4.35;;
22439;SDS011;11387;51.612;7.210;2022-08-19T15:08:23;8.35;;;4.32;;
22439;SDS011;11387;51.612;7.210;2022-08-19T15:10:52;12.20;;;4.55;;
22439;SDS011;11387;51.612;7.210;2022-08-19T15:13:20;7.28;;;5.13;;
22439;SDS011;11387;51.612;7.210;2022-08-19T15:15:48;14.35;;;6.45;;
22439;SDS011;11387;51.612;7.210;2022-08-19T15:18:19;5.82;;;5.05;;
22439;SDS011;11387;51.612;7.210;2022-08-19T15:20:48;10.10;;;6.35;;
22439;SDS011;11387;51.612;7.210;2022-08-19T15:23:17;10.00;;;6.47;;
22439;SDS011;11387;51.612;7.210;2022-08-19T15:25:49;8.20;;;6.20;;
22439;SDS011;11387;51.612;7.210;2022-08-19T15:28:19;9.73;;;6.55;;
22439;SDS011;11387;51.612;7.210;2022-08-19T15:30:48;9.60;;;7.75;;
22439;SDS011;11387;51.612;7.210;2022-08-19T15:33:18;13.95;;;7.95;;
22439;SDS011;11387;51.612;7.210;2022-08-19T15:35:47;9.00;;;7.55;;
22439;SDS011;11387;51.612;7.210;2022-08-19T15:38:17;11.57;;;7.88;;
22439;SDS011;11387;51.612;7.210;2022-08-19T15:40:53;13.52;;;6.68;;
22439;SDS011;11387;51.612;7.210;2022-08-19T15:43:41;11.45;;;8.02;;
22439;SDS011;11387;51.612;7.210;2022-08-19T15:46:09;11.32;;;8.05;;
22439;SDS011;11387;51.612;7.210;2022-08-19T15:48:43;12.32;;;7.95;;
22439;SDS011;11387;51.612;7.210;2022-08-19T15:51:21;8.95;;;7.80;;